sensor_id;sensor_type;location;lat;lon;timestamp;temperature;humidity
59146;DHT22;44928;53.074;6.646;2023-06-10T00:00:42;17.30;99.90
59146;DHT22;44928;53.074;6.646;2023-06-10T00:03:08;17.30;99.90
59146;DHT22;44928;53.074;6.646;2023-06-10T00:05:34;17.20;99.90
59146;DHT22;44928;53.074;6.646;2023-06-10T00:08:02;17.10;99.90
59146;DHT22;44928;53.074;6.646;2023-06-10T00:10:33;17.00;99.90
59146;DHT22;44928;53.074;6.646;2023-06-10T00:13:01;17.00;99.90
59146;DHT22;44928;53.074;6.646;2023-06-10T00:15:28;17.00;99.90
59146;DHT22;44928;53.074;6.646;2023-06-10T00:17:53;16.90;99.90
59146;DHT22;44928;53.074;6.646;2023-06-10T00:20:20;16.90;99.90
59146;DHT22;44928;53.074;6.646;2023-06-10T00:22:47;16.80;99.90
59146;DHT22;44928;53.074;6.646;2023-06-10T00:25:14;16.80;99.90
59146;DHT22;44928;53.074;6.646;2023-06-10T00:27:40;16.80;99.90
59146;DHT22;44928;53.074;6.646;2023-06-10T00:30:06;16.80;99.90
59146;DHT22;44928;53.074;6.646;2023-06-10T00:32:36;16.80;99.90
59146;DHT22;44928;53.074;6.646;2023-06-10T00:35:02;16.70;99.90
59146;DHT22;44928;53.074;6.646;2023-06-10T00:37:29;16.70;99.90
59146;DHT22;44928;53.074;6.646;2023-06-10T00:39:56;16.60;99.90
59146;DHT22;44928;53.074;6.646;2023-06-10T00:42:21;16.60;99.90
59146;DHT22;44928;53.074;6.646;2023-06-10T00:44:50;16.50;99.90
59146;DHT22;44928;53.074;6.646;2023-06-10T00:47:16;16.50;99.90
59146;DHT22;44928;53.074;6.646;2023-06-10T00:49:43;16.50;99.90
59146;DHT22;44928;53.074;6.646;2023-06-10T00:52:09;16.40;99.90
59146;DHT22;44928;53.074;6.646;2023-06-10T00:54:37;16.40;99.90
59146;DHT22;44928;53.074;6.646;2023-06-10T00:57:03;16.30;99.90
59146;DHT22;44928;53.074;6.646;2023-06-10T00:59:30;16.30;99.90
59146;DHT22;44928;53.074;6.646;2023-06-10T01:01:57;16.20;99.90
59146;DHT22;44928;53.074;6.646;2023-06-10T01:04:23;16.20;99.90
59146;DHT22;44928;53.074;6.646;2023-06-10T01:09:45;16.10;99.90
59146;DHT22;44928;53.074;6.646;2023-06-10T01:12:19;16.10;99.90
59146;DHT22;44928;53.074;6.646;2023-06-10T01:14:45;16.10;99.90
59146;DHT22;44928;53.074;6.646;2023-06-10T01:17:11;16.10;99.90
59146;DHT22;44928;53.074;6.646;2023-06-10T01:19:37;16.10;99.90
59146;DHT22;44928;53.074;6.646;2023-06-10T01:22:04;16.10;99.90
59146;DHT22;44928;53.074;6.646;2023-06-10T01:24:31;16.00;99.90
59146;DHT22;44928;53.074;6.646;2023-06-10T01:27:01;16.00;99.90
59146;DHT22;44928;53.074;6.646;2023-06-10T01:29:37;16.00;99.90
59146;DHT22;44928;53.074;6.646;2023-06-10T01:32:18;16.00;99.90
59146;DHT22;44928;53.074;6.646;2023-06-10T01:34:48;16.00;99.90
59146;DHT22;44928;53.074;6.646;2023-06-10T01:37:17;15.90;99.90
59146;DHT22;44928;53.074;6.646;2023-06-10T01:39:46;15.90;99.90
59146;DHT22;44928;53.074;6.646;2023-06-10T01:42:12;15.90;99.90
59146;DHT22;44928;53.074;6.646;2023-06-10T01:44:41;15.80;99.90
59146;DHT22;44928;53.074;6.646;2023-06-10T01:47:08;15.80;99.90
59146;DHT22;44928;53.074;6.646;2023-06-10T01:49:34;15.70;99.90
59146;DHT22;44928;53.074;6.646;2023-06-10T01:52:00;15.70;99.90
59146;DHT22;44928;53.074;6.646;2023-06-10T01:54:26;15.70;99.90
59146;DHT22;44928;53.074;6.646;2023-06-10T01:56:52;15.70;99.90
59146;DHT22;44928;53.074;6.646;2023-06-10T01:59:17;15.70;99.90
59146;DHT22;44928;53.074;6.646;2023-06-10T02:01:43;15.60;99.90
59146;DHT22;44928;53.074;6.646;2023-06-10T02:04:09;15.60;99.90
59146;DHT22;44928;53.074;6.646;2023-06-10T02:06:34;15.60;99.90
59146;DHT22;44928;53.074;6.646;2023-06-10T02:09:01;15.60;99.90
59146;DHT22;44928;53.074;6.646;2023-06-10T02:11:27;15.50;99.90
59146;DHT22;44928;53.074;6.646;2023-06-10T02:13:52;15.50;99.90
59146;DHT22;44928;53.074;6.646;2023-06-10T02:16:18;15.50;99.90
59146;DHT22;44928;53.074;6.646;2023-06-10T02:18:44;15.50;99.90
59146;DHT22;44928;53.074;6.646;2023-06-10T02:21:10;15.50;99.90
59146;DHT22;44928;53.074;6.646;2023-06-10T02:23:36;15.50;99.90
59146;DHT22;44928;53.074;6.646;2023-06-10T02:26:01;15.50;99.90
59146;DHT22;44928;53.074;6.646;2023-06-10T02:28:28;15.50;99.90
59146;DHT22;44928;53.074;6.646;2023-06-10T02:30:53;15.40;99.90
59146;DHT22;44928;53.074;6.646;2023-06-10T02:33:19;15.50;99.90
59146;DHT22;44928;53.074;6.646;2023-06-10T02:35:45;15.40;99.90
59146;DHT22;44928;53.074;6.646;2023-06-10T02:38:11;15.40;99.90
59146;DHT22;44928;53.074;6.646;2023-06-10T02:40:37;15.40;99.90
59146;DHT22;44928;53.074;6.646;2023-06-10T02:43:02;15.40;99.90
59146;DHT22;44928;53.074;6.646;2023-06-10T02:45:28;15.40;99.90
59146;DHT22;44928;53.074;6.646;2023-06-10T02:47:54;15.40;99.90
59146;DHT22;44928;53.074;6.646;2023-06-10T02:50:20;15.40;99.90
59146;DHT22;44928;53.074;6.646;2023-06-10T02:52:46;15.40;99.90
59146;DHT22;44928;53.074;6.646;2023-06-10T02:55:11;15.40;99.90
59146;DHT22;44928;53.074;6.646;2023-06-10T02:57:37;15.30;99.90
59146;DHT22;44928;53.074;6.646;2023-06-10T03:00:03;15.30;99.90
59146;DHT22;44928;53.074;6.646;2023-06-10T03:02:34;15.30;99.90
59146;DHT22;44928;53.074;6.646;2023-06-10T03:05:02;15.30;99.90
59146;DHT22;44928;53.074;6.646;2023-06-10T03:07:28;15.20;99.90
59146;DHT22;44928;53.074;6.646;2023-06-10T03:09:54;15.20;99.90
59146;DHT22;44928;53.074;6.646;2023-06-10T03:12:20;15.20;99.90
59146;DHT22;44928;53.074;6.646;2023-06-10T03:14:45;15.20;99.90
59146;DHT22;44928;53.074;6.646;2023-06-10T03:17:11;15.20;99.90
59146;DHT22;44928;53.074;6.646;2023-06-10T03:19:37;15.10;99.90
59146;DHT22;44928;53.074;6.646;2023-06-10T03:22:13;15.10;99.90
59146;DHT22;44928;53.074;6.646;2023-06-10T03:24:39;15.10;99.90
59146;DHT22;44928;53.074;6.646;2023-06-10T03:27:09;15.00;99.90
59146;DHT22;44928;53.074;6.646;2023-06-10T03:29:39;15.00;99.90
59146;DHT22;44928;53.074;6.646;2023-06-10T03:32:05;15.00;99.90
59146;DHT22;44928;53.074;6.646;2023-06-10T03:34:31;14.90;99.90
59146;DHT22;44928;53.074;6.646;2023-06-10T03:36:57;14.90;99.90
59146;DHT22;44928;53.074;6.646;2023-06-10T03:39:23;14.90;99.90
59146;DHT22;44928;53.074;6.646;2023-06-10T03:41:50;14.80;99.90
59146;DHT22;44928;53.074;6.646;2023-06-10T03:44:16;14.80;99.90
59146;DHT22;44928;53.074;6.646;2023-06-10T03:46:42;14.80;99.90
59146;DHT22;44928;53.074;6.646;2023-06-10T03:49:07;14.70;99.90
59146;DHT22;44928;53.074;6.646;2023-06-10T03:51:35;14.70;99.90
59146;DHT22;44928;53.074;6.646;2023-06-10T03:54:02;14.70;99.90
59146;DHT22;44928;53.074;6.646;2023-06-10T03:56:28;14.60;99.90
59146;DHT22;44928;53.074;6.646;2023-06-10T03:58:54;14.60;99.90
59146;DHT22;44928;53.074;6.646;2023-06-10T04:01:20;14.50;99.90
59146;DHT22;44928;53.074;6.646;2023-06-10T04:03:47;14.50;99.90
59146;DHT22;44928;53.074;6.646;2023-06-10T04:06:14;14.50;99.90
59146;DHT22;44928;53.074;6.646;2023-06-10T04:08:41;14.50;99.90
59146;DHT22;44928;53.074;6.646;2023-06-10T04:11:06;14.50;99.90
59146;DHT22;44928;53.074;6.646;2023-06-10T04:13:32;14.50;99.90
59146;DHT22;44928;53.074;6.646;2023-06-10T04:15:58;14.50;99.90
59146;DHT22;44928;53.074;6.646;2023-06-10T04:18:23;14.50;99.90
59146;DHT22;44928;53.074;6.646;2023-06-10T04:20:49;14.50;99.90
59146;DHT22;44928;53.074;6.646;2023-06-10T04:23:15;14.50;99.90
59146;DHT22;44928;53.074;6.646;2023-06-10T04:25:41;14.50;99.90
59146;DHT22;44928;53.074;6.646;2023-06-10T04:28:06;14.50;99.90
59146;DHT22;44928;53.074;6.646;2023-06-10T04:30:32;14.50;99.90
59146;DHT22;44928;53.074;6.646;2023-06-10T04:32:58;14.50;99.90
59146;DHT22;44928;53.074;6.646;2023-06-10T04:35:24;14.50;99.90
59146;DHT22;44928;53.074;6.646;2023-06-10T04:37:54;14.60;99.90
59146;DHT22;44928;53.074;6.646;2023-06-10T04:40:20;14.60;99.90
59146;DHT22;44928;53.074;6.646;2023-06-10T04:42:45;14.60;99.90
59146;DHT22;44928;53.074;6.646;2023-06-10T04:45:11;14.60;99.90
59146;DHT22;44928;53.074;6.646;2023-06-10T04:47:37;14.60;99.90
59146;DHT22;44928;53.074;6.646;2023-06-10T04:50:03;14.60;99.90
59146;DHT22;44928;53.074;6.646;2023-06-10T04:52:29;14.70;99.90
59146;DHT22;44928;53.074;6.646;2023-06-10T04:54:57;14.70;99.90
59146;DHT22;44928;53.074;6.646;2023-06-10T04:57:23;14.70;99.90
59146;DHT22;44928;53.074;6.646;2023-06-10T04:59:49;14.80;99.90
59146;DHT22;44928;53.074;6.646;2023-06-10T05:02:15;14.80;99.90
59146;DHT22;44928;53.074;6.646;2023-06-10T05:04:41;14.90;99.90
59146;DHT22;44928;53.074;6.646;2023-06-10T05:07:07;14.90;99.90
59146;DHT22;44928;53.074;6.646;2023-06-10T05:09:32;14.90;99.90
59146;DHT22;44928;53.074;6.646;2023-06-10T05:11:58;15.00;99.90
59146;DHT22;44928;53.074;6.646;2023-06-10T05:14:24;15.00;99.90
59146;DHT22;44928;53.074;6.646;2023-06-10T05:16:50;15.00;99.90
59146;DHT22;44928;53.074;6.646;2023-06-10T05:19:16;15.10;99.90
59146;DHT22;44928;53.074;6.646;2023-06-10T05:21:42;15.20;99.90
59146;DHT22;44928;53.074;6.646;2023-06-10T05:24:08;15.30;99.90
59146;DHT22;44928;53.074;6.646;2023-06-10T05:26:35;15.30;99.90
59146;DHT22;44928;53.074;6.646;2023-06-10T05:29:05;15.30;99.90
59146;DHT22;44928;53.074;6.646;2023-06-10T05:31:31;15.40;99.90
59146;DHT22;44928;53.074;6.646;2023-06-10T05:33:57;15.40;99.90
59146;DHT22;44928;53.074;6.646;2023-06-10T05:36:22;15.50;99.90
59146;DHT22;44928;53.074;6.646;2023-06-10T05:38:50;15.60;99.90
59146;DHT22;44928;53.074;6.646;2023-06-10T05:41:16;15.60;99.90
59146;DHT22;44928;53.074;6.646;2023-06-10T05:43:42;15.60;99.90
59146;DHT22;44928;53.074;6.646;2023-06-10T05:46:07;15.60;99.90
59146;DHT22;44928;53.074;6.646;2023-06-10T05:48:33;15.70;99.90
59146;DHT22;44928;53.074;6.646;2023-06-10T05:50:59;15.70;99.90
59146;DHT22;44928;53.074;6.646;2023-06-10T05:53:25;15.70;99.90
59146;DHT22;44928;53.074;6.646;2023-06-10T05:55:50;15.70;99.90
59146;DHT22;44928;53.074;6.646;2023-06-10T05:58:17;15.80;99.90
59146;DHT22;44928;53.074;6.646;2023-06-10T06:00:43;15.80;99.90
59146;DHT22;44928;53.074;6.646;2023-06-10T06:03:09;15.90;99.90
59146;DHT22;44928;53.074;6.646;2023-06-10T06:05:36;16.00;99.90
59146;DHT22;44928;53.074;6.646;2023-06-10T06:08:09;16.00;99.90
59146;DHT22;44928;53.074;6.646;2023-06-10T06:10:35;16.10;99.90
59146;DHT22;44928;53.074;6.646;2023-06-10T06:13:01;16.20;99.90
59146;DHT22;44928;53.074;6.646;2023-06-10T06:15:27;16.20;99.90
59146;DHT22;44928;53.074;6.646;2023-06-10T06:17:53;16.20;99.90
59146;DHT22;44928;53.074;6.646;2023-06-10T06:20:20;16.20;99.90
59146;DHT22;44928;53.074;6.646;2023-06-10T06:22:46;16.30;99.90
59146;DHT22;44928;53.074;6.646;2023-06-10T06:25:11;16.30;99.90
59146;DHT22;44928;53.074;6.646;2023-06-10T06:27:37;16.30;99.90
59146;DHT22;44928;53.074;6.646;2023-06-10T06:30:03;16.40;99.90
59146;DHT22;44928;53.074;6.646;2023-06-10T06:32:29;16.40;99.90
59146;DHT22;44928;53.074;6.646;2023-06-10T06:34:55;16.50;99.90
59146;DHT22;44928;53.074;6.646;2023-06-10T06:37:25;16.50;99.90
59146;DHT22;44928;53.074;6.646;2023-06-10T06:39:51;16.60;99.90
59146;DHT22;44928;53.074;6.646;2023-06-10T06:42:17;16.60;99.90
59146;DHT22;44928;53.074;6.646;2023-06-10T06:44:43;16.70;99.90
59146;DHT22;44928;53.074;6.646;2023-06-10T06:47:09;16.70;99.90
59146;DHT22;44928;53.074;6.646;2023-06-10T06:49:35;16.80;99.90
59146;DHT22;44928;53.074;6.646;2023-06-10T06:52:01;16.90;99.90
59146;DHT22;44928;53.074;6.646;2023-06-10T06:54:27;16.90;99.90
59146;DHT22;44928;53.074;6.646;2023-06-10T06:56:53;17.00;99.90
59146;DHT22;44928;53.074;6.646;2023-06-10T06:59:18;17.10;99.90
59146;DHT22;44928;53.074;6.646;2023-06-10T07:01:45;17.10;99.90
59146;DHT22;44928;53.074;6.646;2023-06-10T07:04:11;17.20;99.90
59146;DHT22;44928;53.074;6.646;2023-06-10T07:06:37;17.30;99.90
59146;DHT22;44928;53.074;6.646;2023-06-10T07:09:07;17.40;99.90
59146;DHT22;44928;53.074;6.646;2023-06-10T07:11:36;17.40;99.90
59146;DHT22;44928;53.074;6.646;2023-06-10T07:14:02;17.50;99.90
59146;DHT22;44928;53.074;6.646;2023-06-10T07:16:28;17.60;99.90
59146;DHT22;44928;53.074;6.646;2023-06-10T07:18:54;17.70;99.90
59146;DHT22;44928;53.074;6.646;2023-06-10T07:21:20;17.70;99.90
59146;DHT22;44928;53.074;6.646;2023-06-10T07:23:46;17.80;99.90
59146;DHT22;44928;53.074;6.646;2023-06-10T07:26:12;17.80;99.90
59146;DHT22;44928;53.074;6.646;2023-06-10T07:28:41;17.90;99.90
59146;DHT22;44928;53.074;6.646;2023-06-10T07:31:08;17.90;99.90
59146;DHT22;44928;53.074;6.646;2023-06-10T07:33:34;18.00;99.90
59146;DHT22;44928;53.074;6.646;2023-06-10T07:36:00;18.10;99.90
59146;DHT22;44928;53.074;6.646;2023-06-10T07:38:26;18.10;99.90
59146;DHT22;44928;53.074;6.646;2023-06-10T07:40:52;18.20;99.90
59146;DHT22;44928;53.074;6.646;2023-06-10T07:43:18;18.30;99.90
59146;DHT22;44928;53.074;6.646;2023-06-10T07:45:44;18.30;99.90
59146;DHT22;44928;53.074;6.646;2023-06-10T07:48:10;18.40;99.90
59146;DHT22;44928;53.074;6.646;2023-06-10T07:50:36;18.40;99.90
59146;DHT22;44928;53.074;6.646;2023-06-10T07:53:03;18.40;99.90
59146;DHT22;44928;53.074;6.646;2023-06-10T07:55:29;18.50;99.90
59146;DHT22;44928;53.074;6.646;2023-06-10T07:57:55;18.60;99.90
59146;DHT22;44928;53.074;6.646;2023-06-10T08:00:21;18.60;99.90
59146;DHT22;44928;53.074;6.646;2023-06-10T08:02:47;18.70;99.90
59146;DHT22;44928;53.074;6.646;2023-06-10T08:05:13;18.80;99.90
59146;DHT22;44928;53.074;6.646;2023-06-10T08:07:42;18.80;99.90
59146;DHT22;44928;53.074;6.646;2023-06-10T08:10:08;18.90;99.90
59146;DHT22;44928;53.074;6.646;2023-06-10T08:12:35;19.00;99.90
59146;DHT22;44928;53.074;6.646;2023-06-10T08:15:01;19.10;99.90
59146;DHT22;44928;53.074;6.646;2023-06-10T08:17:32;19.10;99.90
59146;DHT22;44928;53.074;6.646;2023-06-10T08:19:57;19.20;99.90
59146;DHT22;44928;53.074;6.646;2023-06-10T08:22:23;19.30;99.90
59146;DHT22;44928;53.074;6.646;2023-06-10T08:24:49;19.40;99.90
59146;DHT22;44928;53.074;6.646;2023-06-10T08:27:15;19.50;99.90
59146;DHT22;44928;53.074;6.646;2023-06-10T08:29:41;19.60;99.90
59146;DHT22;44928;53.074;6.646;2023-06-10T08:32:07;19.70;99.90
59146;DHT22;44928;53.074;6.646;2023-06-10T08:34:35;19.80;99.90
59146;DHT22;44928;53.074;6.646;2023-06-10T08:37:05;19.90;99.90
59146;DHT22;44928;53.074;6.646;2023-06-10T08:39:30;20.00;99.90
59146;DHT22;44928;53.074;6.646;2023-06-10T08:44:46;20.30;99.90
59146;DHT22;44928;53.074;6.646;2023-06-10T08:47:15;20.40;99.90
59146;DHT22;44928;53.074;6.646;2023-06-10T08:49:44;20.50;99.90
59146;DHT22;44928;53.074;6.646;2023-06-10T08:52:14;20.70;99.90
59146;DHT22;44928;53.074;6.646;2023-06-10T08:55:04;20.90;99.90
59146;DHT22;44928;53.074;6.646;2023-06-10T08:57:29;21.10;99.90
59146;DHT22;44928;53.074;6.646;2023-06-10T08:59:57;21.40;99.90
59146;DHT22;44928;53.074;6.646;2023-06-10T09:02:24;21.60;99.90
59146;DHT22;44928;53.074;6.646;2023-06-10T09:04:50;21.80;99.90
59146;DHT22;44928;53.074;6.646;2023-06-10T09:07:17;22.00;99.90
59146;DHT22;44928;53.074;6.646;2023-06-10T09:09:44;22.20;99.90
59146;DHT22;44928;53.074;6.646;2023-06-10T09:12:12;22.50;99.90
59146;DHT22;44928;53.074;6.646;2023-06-10T09:14:39;22.70;99.90
59146;DHT22;44928;53.074;6.646;2023-06-10T09:17:05;22.90;99.90
59146;DHT22;44928;53.074;6.646;2023-06-10T09:19:31;23.10;99.90
59146;DHT22;44928;53.074;6.646;2023-06-10T09:21:58;23.30;99.60
59146;DHT22;44928;53.074;6.646;2023-06-10T09:24:24;23.50;99.10
59146;DHT22;44928;53.074;6.646;2023-06-10T09:27:01;23.70;98.50
59146;DHT22;44928;53.074;6.646;2023-06-10T09:29:28;23.80;98.10
59146;DHT22;44928;53.074;6.646;2023-06-10T09:31:54;23.90;97.80
59146;DHT22;44928;53.074;6.646;2023-06-10T09:34:20;24.20;97.40
59146;DHT22;44928;53.074;6.646;2023-06-10T09:36:50;24.30;96.20
59146;DHT22;44928;53.074;6.646;2023-06-10T09:39:17;24.60;95.60
59146;DHT22;44928;53.074;6.646;2023-06-10T09:41:45;24.80;95.10
59146;DHT22;44928;53.074;6.646;2023-06-10T09:44:17;25.10;94.80
59146;DHT22;44928;53.074;6.646;2023-06-10T09:46:49;25.40;94.20
59146;DHT22;44928;53.074;6.646;2023-06-10T09:49:16;25.60;93.90
59146;DHT22;44928;53.074;6.646;2023-06-10T09:51:55;25.80;92.90
59146;DHT22;44928;53.074;6.646;2023-06-10T09:54:21;26.00;92.50
59146;DHT22;44928;53.074;6.646;2023-06-10T09:56:51;26.10;91.40
59146;DHT22;44928;53.074;6.646;2023-06-10T09:59:29;26.30;90.70
59146;DHT22;44928;53.074;6.646;2023-06-10T10:01:57;26.60;90.10
59146;DHT22;44928;53.074;6.646;2023-06-10T10:04:24;26.80;90.50
59146;DHT22;44928;53.074;6.646;2023-06-10T10:06:50;27.00;88.40
59146;DHT22;44928;53.074;6.646;2023-06-10T10:09:16;27.20;86.50
59146;DHT22;44928;53.074;6.646;2023-06-10T10:11:44;27.30;83.40
59146;DHT22;44928;53.074;6.646;2023-06-10T10:14:10;27.40;80.90
59146;DHT22;44928;53.074;6.646;2023-06-10T10:16:37;27.60;79.70
59146;DHT22;44928;53.074;6.646;2023-06-10T10:19:27;27.80;76.40
59146;DHT22;44928;53.074;6.646;2023-06-10T10:21:56;27.80;76.40
59146;DHT22;44928;53.074;6.646;2023-06-10T10:24:35;27.90;75.90
59146;DHT22;44928;53.074;6.646;2023-06-10T10:27:09;28.00;75.20
59146;DHT22;44928;53.074;6.646;2023-06-10T10:29:39;28.20;74.50
59146;DHT22;44928;53.074;6.646;2023-06-10T10:32:06;28.40;72.90
59146;DHT22;44928;53.074;6.646;2023-06-10T10:35:08;28.60;72.40
59146;DHT22;44928;53.074;6.646;2023-06-10T10:37:35;28.80;70.60
59146;DHT22;44928;53.074;6.646;2023-06-10T10:40:02;28.90;69.30
59146;DHT22;44928;53.074;6.646;2023-06-10T10:42:30;29.10;69.40
59146;DHT22;44928;53.074;6.646;2023-06-10T10:44:56;29.20;67.60
59146;DHT22;44928;53.074;6.646;2023-06-10T10:47:22;29.20;65.60
59146;DHT22;44928;53.074;6.646;2023-06-10T10:49:52;29.20;64.40
59146;DHT22;44928;53.074;6.646;2023-06-10T10:52:18;29.30;63.60
59146;DHT22;44928;53.074;6.646;2023-06-10T10:54:46;29.30;62.60
59146;DHT22;44928;53.074;6.646;2023-06-10T10:57:19;29.50;62.30
59146;DHT22;44928;53.074;6.646;2023-06-10T11:00:00;29.60;61.30
59146;DHT22;44928;53.074;6.646;2023-06-10T11:02:32;29.70;61.90
59146;DHT22;44928;53.074;6.646;2023-06-10T11:04:58;29.80;60.50
59146;DHT22;44928;53.074;6.646;2023-06-10T11:07:26;29.90;58.90
59146;DHT22;44928;53.074;6.646;2023-06-10T11:10:17;30.00;58.00
59146;DHT22;44928;53.074;6.646;2023-06-10T11:12:54;30.30;57.50
59146;DHT22;44928;53.074;6.646;2023-06-10T11:15:28;30.50;57.20
59146;DHT22;44928;53.074;6.646;2023-06-10T11:18:15;30.50;55.90
59146;DHT22;44928;53.074;6.646;2023-06-10T11:28:42;30.90;55.00
59146;DHT22;44928;53.074;6.646;2023-06-10T11:31:38;30.90;54.50
59146;DHT22;44928;53.074;6.646;2023-06-10T11:34:05;30.90;54.70
59146;DHT22;44928;53.074;6.646;2023-06-10T11:36:33;31.00;55.40
59146;DHT22;44928;53.074;6.646;2023-06-10T11:39:01;31.00;56.00
59146;DHT22;44928;53.074;6.646;2023-06-10T11:41:28;31.20;55.50
59146;DHT22;44928;53.074;6.646;2023-06-10T11:43:55;31.30;53.50
59146;DHT22;44928;53.074;6.646;2023-06-10T11:46:24;31.30;53.30
59146;DHT22;44928;53.074;6.646;2023-06-10T11:48:58;31.30;54.30
59146;DHT22;44928;53.074;6.646;2023-06-10T11:51:29;31.40;55.50
59146;DHT22;44928;53.074;6.646;2023-06-10T11:53:56;31.50;56.90
59146;DHT22;44928;53.074;6.646;2023-06-10T11:56:29;31.70;56.30
59146;DHT22;44928;53.074;6.646;2023-06-10T11:58:59;31.70;54.40
59146;DHT22;44928;53.074;6.646;2023-06-10T12:01:30;31.80;54.10
59146;DHT22;44928;53.074;6.646;2023-06-10T12:04:04;31.90;54.40
59146;DHT22;44928;53.074;6.646;2023-06-10T12:09:06;31.70;53.60
59146;DHT22;44928;53.074;6.646;2023-06-10T12:11:33;31.70;53.40
59146;DHT22;44928;53.074;6.646;2023-06-10T12:13:59;31.70;53.20
59146;DHT22;44928;53.074;6.646;2023-06-10T12:16:25;31.60;53.20
59146;DHT22;44928;53.074;6.646;2023-06-10T12:18:50;31.50;52.50
59146;DHT22;44928;53.074;6.646;2023-06-10T12:21:19;31.50;52.20
59146;DHT22;44928;53.074;6.646;2023-06-10T12:24:09;31.70;52.20
59146;DHT22;44928;53.074;6.646;2023-06-10T12:26:42;31.80;53.00
59146;DHT22;44928;53.074;6.646;2023-06-10T12:29:25;31.80;53.10
59146;DHT22;44928;53.074;6.646;2023-06-10T12:34:37;31.50;52.70
59146;DHT22;44928;53.074;6.646;2023-06-10T12:37:06;31.30;53.40
59146;DHT22;44928;53.074;6.646;2023-06-10T12:39:39;31.40;54.00
59146;DHT22;44928;53.074;6.646;2023-06-10T12:42:05;31.40;53.90
59146;DHT22;44928;53.074;6.646;2023-06-10T12:44:35;31.40;53.90
59146;DHT22;44928;53.074;6.646;2023-06-10T12:47:10;31.30;54.10
59146;DHT22;44928;53.074;6.646;2023-06-10T12:49:38;31.20;54.10
59146;DHT22;44928;53.074;6.646;2023-06-10T12:52:05;31.20;54.60
59146;DHT22;44928;53.074;6.646;2023-06-10T12:54:31;31.10;54.30
59146;DHT22;44928;53.074;6.646;2023-06-10T12:56:57;30.90;54.80
59146;DHT22;44928;53.074;6.646;2023-06-10T12:59:23;30.60;54.30
59146;DHT22;44928;53.074;6.646;2023-06-10T13:01:53;30.40;54.50
59146;DHT22;44928;53.074;6.646;2023-06-10T13:04:19;30.20;54.30
59146;DHT22;44928;53.074;6.646;2023-06-10T13:06:46;30.10;54.30
59146;DHT22;44928;53.074;6.646;2023-06-10T13:09:13;29.90;54.90
59146;DHT22;44928;53.074;6.646;2023-06-10T13:11:39;29.80;55.20
59146;DHT22;44928;53.074;6.646;2023-06-10T13:14:05;29.70;55.90
59146;DHT22;44928;53.074;6.646;2023-06-10T13:16:32;29.60;56.00
59146;DHT22;44928;53.074;6.646;2023-06-10T13:18:58;29.60;56.50
59146;DHT22;44928;53.074;6.646;2023-06-10T13:21:24;29.40;56.90
59146;DHT22;44928;53.074;6.646;2023-06-10T13:23:51;29.30;56.80
59146;DHT22;44928;53.074;6.646;2023-06-10T13:26:17;29.20;57.10
59146;DHT22;44928;53.074;6.646;2023-06-10T13:28:43;29.20;57.20
59146;DHT22;44928;53.074;6.646;2023-06-10T13:31:09;29.10;57.10
59146;DHT22;44928;53.074;6.646;2023-06-10T13:33:35;29.10;57.00
59146;DHT22;44928;53.074;6.646;2023-06-10T13:36:01;29.00;57.40
59146;DHT22;44928;53.074;6.646;2023-06-10T13:38:26;29.00;57.90
59146;DHT22;44928;53.074;6.646;2023-06-10T13:40:52;29.00;56.80
59146;DHT22;44928;53.074;6.646;2023-06-10T13:43:18;28.90;56.10
59146;DHT22;44928;53.074;6.646;2023-06-10T13:45:44;28.90;56.50
59146;DHT22;44928;53.074;6.646;2023-06-10T13:48:10;28.80;56.20
59146;DHT22;44928;53.074;6.646;2023-06-10T13:50:37;28.80;56.30
59146;DHT22;44928;53.074;6.646;2023-06-10T13:53:03;28.80;56.20
59146;DHT22;44928;53.074;6.646;2023-06-10T13:55:29;28.90;56.50
59146;DHT22;44928;53.074;6.646;2023-06-10T13:57:55;28.90;56.50
59146;DHT22;44928;53.074;6.646;2023-06-10T14:00:21;28.90;56.00
59146;DHT22;44928;53.074;6.646;2023-06-10T14:02:46;29.00;55.90
59146;DHT22;44928;53.074;6.646;2023-06-10T14:05:12;29.00;56.10
59146;DHT22;44928;53.074;6.646;2023-06-10T14:07:38;29.10;56.10
59146;DHT22;44928;53.074;6.646;2023-06-10T14:10:05;29.20;56.20
59146;DHT22;44928;53.074;6.646;2023-06-10T14:12:31;29.20;56.00
59146;DHT22;44928;53.074;6.646;2023-06-10T14:14:57;29.20;56.60
59146;DHT22;44928;53.074;6.646;2023-06-10T14:17:23;29.30;56.70
59146;DHT22;44928;53.074;6.646;2023-06-10T14:19:49;29.50;56.80
59146;DHT22;44928;53.074;6.646;2023-06-10T14:22:15;29.60;56.60
59146;DHT22;44928;53.074;6.646;2023-06-10T14:24:40;29.70;56.70
59146;DHT22;44928;53.074;6.646;2023-06-10T14:27:06;29.80;54.10
59146;DHT22;44928;53.074;6.646;2023-06-10T14:29:32;29.80;51.80
59146;DHT22;44928;53.074;6.646;2023-06-10T14:31:59;29.90;50.50
59146;DHT22;44928;53.074;6.646;2023-06-10T14:34:25;30.00;48.80
59146;DHT22;44928;53.074;6.646;2023-06-10T14:36:54;30.00;48.50
59146;DHT22;44928;53.074;6.646;2023-06-10T14:39:20;30.10;48.50
59146;DHT22;44928;53.074;6.646;2023-06-10T14:41:46;29.90;47.90
59146;DHT22;44928;53.074;6.646;2023-06-10T14:44:12;29.70;48.20
59146;DHT22;44928;53.074;6.646;2023-06-10T14:46:38;29.50;48.80
59146;DHT22;44928;53.074;6.646;2023-06-10T14:49:03;29.40;49.70
59146;DHT22;44928;53.074;6.646;2023-06-10T14:51:29;29.30;51.10
59146;DHT22;44928;53.074;6.646;2023-06-10T14:53:55;29.10;49.80
59146;DHT22;44928;53.074;6.646;2023-06-10T14:56:20;28.90;49.60
59146;DHT22;44928;53.074;6.646;2023-06-10T14:58:46;28.90;50.20
59146;DHT22;44928;53.074;6.646;2023-06-10T15:01:12;28.90;50.50
59146;DHT22;44928;53.074;6.646;2023-06-10T15:03:37;28.90;50.40
59146;DHT22;44928;53.074;6.646;2023-06-10T15:06:03;28.80;50.20
59146;DHT22;44928;53.074;6.646;2023-06-10T15:08:29;28.70;50.30
59146;DHT22;44928;53.074;6.646;2023-06-10T15:10:55;28.60;50.30
59146;DHT22;44928;53.074;6.646;2023-06-10T15:13:22;28.50;50.50
59146;DHT22;44928;53.074;6.646;2023-06-10T15:15:48;28.40;51.00
59146;DHT22;44928;53.074;6.646;2023-06-10T15:18:14;28.40;51.00
59146;DHT22;44928;53.074;6.646;2023-06-10T15:20:39;28.40;51.30
59146;DHT22;44928;53.074;6.646;2023-06-10T15:23:05;28.40;51.60
59146;DHT22;44928;53.074;6.646;2023-06-10T15:25:33;28.40;51.60
59146;DHT22;44928;53.074;6.646;2023-06-10T15:27:59;28.30;51.90
59146;DHT22;44928;53.074;6.646;2023-06-10T15:30:25;28.20;52.50
59146;DHT22;44928;53.074;6.646;2023-06-10T15:32:50;28.20;52.30
59146;DHT22;44928;53.074;6.646;2023-06-10T15:35:16;28.10;52.10
59146;DHT22;44928;53.074;6.646;2023-06-10T15:37:42;28.00;52.30
59146;DHT22;44928;53.074;6.646;2023-06-10T15:40:08;28.00;52.10
59146;DHT22;44928;53.074;6.646;2023-06-10T15:42:34;28.00;52.60
59146;DHT22;44928;53.074;6.646;2023-06-10T15:45:00;27.90;53.10
59146;DHT22;44928;53.074;6.646;2023-06-10T15:47:26;27.90;53.00
59146;DHT22;44928;53.074;6.646;2023-06-10T15:49:52;27.90;53.00